createdAt,value
2023-02-25T00:02:42.420Z,1.80
2023-02-25T00:07:46.848Z,2.10
2023-02-25T00:12:49.604Z,2.10
2023-02-25T00:17:52.477Z,2.17
2023-02-25T00:22:56.661Z,3.87
2023-02-25T00:27:59.444Z,1.90
2023-02-25T00:33:02.276Z,2.47
2023-02-25T00:38:15.624Z,3.63
2023-02-25T00:43:22.126Z,3.57
2023-02-25T00:48:25.789Z,3.33
2023-02-25T00:53:30.267Z,2.50
2023-02-25T00:58:33.243Z,4.57
2023-02-25T01:03:36.114Z,3.30
2023-02-25T01:08:40.438Z,2.70
2023-02-25T01:13:43.781Z,3.07
2023-02-25T01:18:47.578Z,1.47
2023-02-25T01:23:58.379Z,1.87
2023-02-25T01:29:01.244Z,1.07
2023-02-25T01:34:05.713Z,1.60
2023-02-25T01:39:10.139Z,3.00
2023-02-25T01:44:15.844Z,1.77
2023-02-25T01:49:21.501Z,2.57
2023-02-25T01:54:25.893Z,3.00
2023-02-25T01:59:30.952Z,2.90
2023-02-25T02:04:33.855Z,2.50
2023-02-25T02:09:40.293Z,3.33
2023-02-25T02:14:43.518Z,2.00
2023-02-25T02:20:13.086Z,4.57
2023-02-25T02:25:57.682Z,2.63
2023-02-25T02:31:21.577Z,2.23
2023-02-25T02:36:30.547Z,1.63
2023-02-25T02:41:36.280Z,1.87
2023-02-25T02:46:44.058Z,2.20
2023-02-25T02:51:51.023Z,1.60
2023-02-25T02:56:55.301Z,2.53
2023-02-25T03:02:05.550Z,2.77
2023-02-25T03:07:12.485Z,3.00
2023-02-25T03:12:15.508Z,2.73
2023-02-25T03:17:22.960Z,4.57
2023-02-25T03:22:29.726Z,2.03
2023-02-25T03:27:35.665Z,2.37
2023-02-25T03:32:44.916Z,2.13
2023-02-25T03:37:50.260Z,1.60
2023-02-25T03:42:57.815Z,1.83
2023-02-25T03:48:03.213Z,1.73
2023-02-25T03:53:06.456Z,2.63
2023-02-25T03:58:40.235Z,1.87
2023-02-25T04:03:44.961Z,1.73
2023-02-25T04:08:49.018Z,1.53
2023-02-25T04:13:51.992Z,2.13
2023-02-25T04:18:56.629Z,3.03
2023-02-25T04:24:00.132Z,1.90
2023-02-25T04:29:04.702Z,1.90
2023-02-25T04:34:08.911Z,2.27
2023-02-25T04:39:12.464Z,3.13
2023-02-25T04:44:15.748Z,2.03
2023-02-25T04:49:20.917Z,4.03
2023-02-25T04:54:23.793Z,3.60
2023-02-25T04:59:26.826Z,1.80
2023-02-25T05:04:30.936Z,3.00
2023-02-25T05:09:34.031Z,4.37
2023-02-25T05:14:38.204Z,2.43
2023-02-25T05:19:42.595Z,2.63
2023-02-25T05:24:45.370Z,1.77
2023-02-25T05:29:48.158Z,2.07
2023-02-25T05:34:52.321Z,1.80
2023-02-25T05:39:55.305Z,2.30
2023-02-25T05:44:58.161Z,1.57
2023-02-25T05:50:02.774Z,1.90
2023-02-25T05:55:08.637Z,2.27
2023-02-25T06:00:15.079Z,2.73
2023-02-25T06:05:19.653Z,2.50
2023-02-25T06:10:22.488Z,2.00
2023-02-25T06:15:25.332Z,1.97
2023-02-25T06:20:29.522Z,1.60
2023-02-25T06:25:32.715Z,2.00
2023-02-25T06:30:35.632Z,1.97
2023-02-25T06:35:39.913Z,2.60
2023-02-25T06:40:42.777Z,2.87
2023-02-25T06:45:46.095Z,2.93
2023-02-25T06:50:50.567Z,2.60
2023-02-25T06:55:53.446Z,3.10
2023-02-25T07:00:56.357Z,2.37
2023-02-25T07:06:00.599Z,2.00
2023-02-25T07:11:15.384Z,2.43
2023-02-25T07:16:19.063Z,2.77
2023-02-25T07:21:23.570Z,1.97
2023-02-25T07:26:28.244Z,2.27
2023-02-25T07:31:31.253Z,2.17
2023-02-25T07:36:38.035Z,2.60
2023-02-25T07:41:41.202Z,1.63
2023-02-25T07:46:47.193Z,2.77
2023-02-25T07:51:51.366Z,1.77
2023-02-25T07:56:54.317Z,3.27
2023-02-25T08:01:57.155Z,2.60
2023-02-25T08:07:02.195Z,1.13
2023-02-25T08:12:05.311Z,0.90
2023-02-25T08:17:08.243Z,0.70
2023-02-25T08:22:12.572Z,0.90
2023-02-25T08:27:15.801Z,1.07
2023-02-25T08:32:19.152Z,0.90
2023-02-25T08:37:25.632Z,1.00
2023-02-25T08:42:28.732Z,1.30
2023-02-25T08:47:31.639Z,1.20
2023-02-25T08:52:35.987Z,1.00
2023-02-25T08:57:38.937Z,1.20
2023-02-25T09:02:41.933Z,1.83
2023-02-25T09:07:46.178Z,2.20
2023-02-25T09:12:49.894Z,1.07
2023-02-25T09:17:53.148Z,0.77
2023-02-25T09:22:58.089Z,1.10
2023-02-25T09:28:00.958Z,1.13
2023-02-25T09:33:04.075Z,1.03
2023-02-25T09:38:08.472Z,1.00
2023-02-25T09:43:26.802Z,0.80
2023-02-25T09:48:33.180Z,1.57
2023-02-25T09:53:41.004Z,0.90
2023-02-25T09:58:46.777Z,2.60
2023-02-25T10:03:55.676Z,0.80
2023-02-25T10:09:07.237Z,1.60
2023-02-25T10:14:19.038Z,1.20
2023-02-25T10:19:33.931Z,1.60
2023-02-25T10:24:42.258Z,2.20
2023-02-25T10:29:49.223Z,1.47
2023-02-25T10:34:52.693Z,1.10
2023-02-25T10:39:58.593Z,0.90
2023-02-25T10:45:13.694Z,1.17
2023-02-25T10:50:20.891Z,1.03
2023-02-25T10:55:32.657Z,1.17
2023-02-25T11:00:36.642Z,1.13
2023-02-25T11:05:41.486Z,1.13
2023-02-25T11:11:02.036Z,0.87
2023-02-25T11:16:08.391Z,1.10
2023-02-25T11:21:14.485Z,0.93
2023-02-25T11:26:28.802Z,0.70
2023-02-25T11:31:35.790Z,1.00
2023-02-25T11:36:40.275Z,1.27
2023-02-25T11:41:45.767Z,1.60
2023-02-25T11:46:56.685Z,1.00
2023-02-25T11:52:06.032Z,0.87
2023-02-25T11:57:16.662Z,0.80
2023-02-25T12:02:33.529Z,1.20
2023-02-25T12:08:12.994Z,0.90
2023-02-25T12:13:38.640Z,1.10
2023-02-25T12:19:11.409Z,1.00
2023-02-25T12:24:44.467Z,0.80
2023-02-25T12:30:05.367Z,1.37
2023-02-25T12:35:23.272Z,1.23
2023-02-25T12:40:41.949Z,1.27
2023-02-25T12:45:56.543Z,1.17
2023-02-25T12:51:23.270Z,1.13
2023-02-25T12:57:04.583Z,1.70
2023-02-25T13:02:26.209Z,1.73
2023-02-25T13:07:41.376Z,1.03
2023-02-25T13:12:58.778Z,2.00
2023-02-25T13:18:12.576Z,1.30
2023-02-25T13:23:32.707Z,1.10
2023-02-25T13:28:55.834Z,1.63
2023-02-25T13:34:11.040Z,1.33
2023-02-25T13:39:56.130Z,1.57
2023-02-25T13:45:19.872Z,0.93
2023-02-25T13:50:46.779Z,0.77
2023-02-25T13:56:08.938Z,1.30
2023-02-25T14:01:28.107Z,1.20
2023-02-25T14:06:54.874Z,1.37
2023-02-25T14:12:12.138Z,1.30
2023-02-25T14:17:41.780Z,1.27
2023-02-25T14:22:49.615Z,1.60
2023-02-25T14:28:03.196Z,1.20
2023-02-25T14:33:19.474Z,2.83
2023-02-25T14:38:30.635Z,1.30
2023-02-25T14:43:34.705Z,1.03
2023-02-25T14:48:42.684Z,0.93
2023-02-25T14:54:26.967Z,1.07
2023-02-25T14:59:42.084Z,1.17
2023-02-25T15:05:02.099Z,1.13
2023-02-25T15:10:24.261Z,1.00
2023-02-25T15:15:36.402Z,1.10
2023-02-25T15:20:40.080Z,1.27
2023-02-25T15:25:47.992Z,1.10
2023-02-25T15:31:29.936Z,1.73
2023-02-25T15:36:41.765Z,1.03
2023-02-25T15:41:47.059Z,1.07
2023-02-25T15:46:50.799Z,1.03
2023-02-25T15:51:55.789Z,0.90
2023-02-25T15:57:01.825Z,1.30
2023-02-25T16:02:46.326Z,0.90
2023-02-25T16:07:51.389Z,0.90
2023-02-25T16:12:57.580Z,1.03
2023-02-25T16:18:08.003Z,0.90
2023-02-25T16:23:11.929Z,1.00
2023-02-25T16:28:22.496Z,0.90
2023-02-25T16:33:30.519Z,1.13
2023-02-25T16:38:43.151Z,1.10
2023-02-25T16:43:48.245Z,0.80
2023-02-25T16:48:52.805Z,2.13
2023-02-25T16:54:02.442Z,1.30
2023-02-25T16:59:08.529Z,1.87
2023-02-25T17:04:17.121Z,1.30
2023-02-25T17:09:24.822Z,2.07
2023-02-25T17:14:30.569Z,0.70
2023-02-25T17:19:33.573Z,1.37
2023-02-25T17:24:36.497Z,1.10
2023-02-25T17:29:40.628Z,1.10
2023-02-25T17:34:43.584Z,1.80
2023-02-25T17:39:46.537Z,1.17
2023-02-25T17:44:50.723Z,1.00
2023-02-25T17:49:54.339Z,1.23
2023-02-25T17:54:59.750Z,1.47
2023-02-25T18:00:21.181Z,1.33
2023-02-25T18:05:27.986Z,1.60
2023-02-25T18:10:55.925Z,1.13
2023-02-25T18:16:31.657Z,1.50
2023-02-25T18:21:40.900Z,1.40
2023-02-25T18:27:01.420Z,0.70
2023-02-25T18:32:05.806Z,0.63
2023-02-25T18:37:10.410Z,1.10
2023-02-25T18:42:16.042Z,0.70
2023-02-25T18:47:20.248Z,0.80
2023-02-25T18:52:25.151Z,1.07
2023-02-25T18:57:28.999Z,1.00
2023-02-25T19:02:34.539Z,1.23
2023-02-25T19:07:37.533Z,1.23
2023-02-25T19:12:40.414Z,0.93
2023-02-25T19:17:44.702Z,1.00
2023-02-25T19:22:49.292Z,1.20
2023-02-25T19:27:53.296Z,1.20
2023-02-25T19:33:02.814Z,1.60
2023-02-25T19:38:08.826Z,1.13
2023-02-25T19:43:12.220Z,1.33
2023-02-25T19:48:16.411Z,2.07
2023-02-25T19:53:19.334Z,1.27
2023-02-25T19:58:22.080Z,1.10
2023-02-25T20:03:26.390Z,1.53
2023-02-25T20:08:29.232Z,1.10
2023-02-25T20:13:32.156Z,1.30
2023-02-25T20:18:36.371Z,1.07
2023-02-25T20:23:39.953Z,1.03
2023-02-25T20:28:42.901Z,0.70
2023-02-25T20:33:49.640Z,1.00
2023-02-25T20:39:17.069Z,0.83
2023-02-25T20:44:19.988Z,0.70
2023-02-25T20:49:25.463Z,0.70
2023-02-25T20:54:28.347Z,1.07
2023-02-25T20:59:31.108Z,0.90
2023-02-25T21:04:35.399Z,0.87
2023-02-25T21:09:38.349Z,1.20
2023-02-25T21:14:41.247Z,1.53
2023-02-25T21:19:45.405Z,1.47
2023-02-25T21:24:48.235Z,1.83
2023-02-25T21:29:51.381Z,2.30
2023-02-25T21:34:55.593Z,1.57
2023-02-25T21:39:58.433Z,1.33
2023-02-25T21:45:01.216Z,1.43
2023-02-25T21:50:06.102Z,1.70
2023-02-25T21:55:10.202Z,1.70
2023-02-25T22:00:14.137Z,1.57
2023-02-25T22:05:18.768Z,1.60
2023-02-25T22:10:22.292Z,1.60
2023-02-25T22:15:27.692Z,1.50
2023-02-25T22:20:32.472Z,2.33
2023-02-25T22:25:35.280Z,1.77
2023-02-25T22:30:38.211Z,1.90
2023-02-25T22:35:42.474Z,1.40
2023-02-25T22:40:45.343Z,1.73
2023-02-25T22:45:48.219Z,1.73
2023-02-25T22:50:52.597Z,1.90
2023-02-25T22:55:55.469Z,1.43
2023-02-25T23:00:58.466Z,0.97
2023-02-25T23:06:02.839Z,2.20
2023-02-25T23:11:11.172Z,0.87
2023-02-25T23:16:14.886Z,0.80
2023-02-25T23:21:20.764Z,0.70
2023-02-25T23:26:25.932Z,1.80
2023-02-25T23:31:30.718Z,1.20
2023-02-25T23:36:34.953Z,0.90
2023-02-25T23:41:39.181Z,1.10
2023-02-25T23:46:45.107Z,0.60
2023-02-25T23:51:49.550Z,0.77
2023-02-25T23:56:52.946Z,0.70
